createdAt,value
2023-03-06T00:00:43.216Z,5.67
2023-03-06T00:03:09.824Z,5.23
2023-03-06T00:05:36.456Z,5.80
2023-03-06T00:08:03.346Z,5.73
2023-03-06T00:10:31.098Z,5.47
2023-03-06T00:12:59.556Z,5.73
2023-03-06T00:15:28.212Z,4.90
2023-03-06T00:17:55.905Z,5.87
2023-03-06T00:20:23.729Z,5.50
2023-03-06T00:22:50.828Z,5.30
2023-03-06T00:25:18.767Z,5.83
2023-03-06T00:27:45.894Z,5.40
2023-03-06T00:30:14.840Z,5.90
2023-03-06T00:32:43.584Z,5.47
2023-03-06T00:35:11.321Z,5.60
2023-03-06T00:37:38.487Z,5.77
2023-03-06T00:40:05.693Z,6.03
2023-03-06T00:42:32.330Z,5.70
2023-03-06T00:44:58.890Z,5.60
2023-03-06T00:47:25.671Z,6.47
2023-03-06T00:49:53.586Z,5.47
2023-03-06T00:52:20.147Z,5.60
2023-03-06T00:54:46.692Z,5.90
2023-03-06T00:57:13.289Z,6.43
2023-03-06T00:59:39.999Z,6.00
2023-03-06T01:02:06.683Z,8.43
2023-03-06T01:04:33.554Z,5.40
2023-03-06T01:07:01.483Z,5.63
2023-03-06T01:09:29.101Z,5.67
2023-03-06T01:11:55.817Z,7.30
2023-03-06T01:14:22.542Z,6.13
2023-03-06T01:16:49.373Z,6.67
2023-03-06T01:19:16.192Z,6.00
2023-03-06T01:21:42.778Z,9.27
2023-03-06T01:24:10.676Z,6.40
2023-03-06T01:26:37.293Z,6.50
2023-03-06T01:29:03.909Z,5.63
2023-03-06T01:31:30.478Z,6.67
2023-03-06T01:33:57.053Z,5.90
2023-03-06T01:36:23.668Z,6.43
2023-03-06T01:38:50.232Z,6.83
2023-03-06T01:41:18.362Z,6.03
2023-03-06T01:43:46.365Z,5.57
2023-03-06T01:46:32.171Z,5.20
2023-03-06T01:49:02.780Z,6.07
2023-03-06T01:51:33.244Z,7.67
2023-03-06T01:54:02.478Z,5.90
2023-03-06T01:56:30.649Z,6.63
2023-03-06T01:58:58.463Z,5.33
2023-03-06T02:01:25.859Z,5.30
2023-03-06T02:03:53.058Z,5.07
2023-03-06T02:06:21.772Z,6.27
2023-03-06T02:08:49.881Z,6.27
2023-03-06T02:11:18.898Z,5.23
2023-03-06T02:13:48.092Z,5.10
2023-03-06T02:16:17.462Z,4.70
2023-03-06T02:18:45.803Z,5.93
2023-03-06T02:21:20.272Z,5.07
2023-03-06T02:23:56.563Z,5.40
2023-03-06T02:26:26.701Z,5.93
2023-03-06T02:28:53.321Z,5.23
2023-03-06T02:31:22.907Z,4.77
2023-03-06T02:34:02.518Z,4.90
2023-03-06T02:36:30.711Z,5.53
2023-03-06T02:38:58.361Z,6.17
2023-03-06T02:41:26.371Z,5.17
2023-03-06T02:43:53.532Z,5.57
2023-03-06T02:46:20.453Z,5.77
2023-03-06T02:48:47.105Z,4.23
2023-03-06T02:51:13.730Z,5.40
2023-03-06T02:53:40.404Z,5.23
2023-03-06T02:56:07.993Z,5.33
2023-03-06T02:58:36.322Z,5.17
2023-03-06T03:01:02.951Z,9.10
2023-03-06T03:03:29.591Z,4.77
2023-03-06T03:05:56.154Z,5.13
2023-03-06T03:08:22.757Z,5.60
2023-03-06T03:10:49.339Z,5.37
2023-03-06T03:13:15.987Z,4.47
2023-03-06T03:15:44.316Z,5.23
2023-03-06T03:18:11.664Z,4.83
2023-03-06T03:20:41.692Z,4.80
2023-03-06T03:23:08.283Z,5.70
2023-03-06T03:25:34.816Z,5.20
2023-03-06T03:28:01.361Z,5.70
2023-03-06T03:30:27.904Z,5.77
2023-03-06T03:32:55.837Z,4.83
2023-03-06T03:35:22.511Z,5.67
2023-03-06T03:37:49.091Z,7.30
2023-03-06T03:40:15.666Z,5.33
2023-03-06T03:42:42.276Z,4.63
2023-03-06T03:45:09.599Z,5.07
2023-03-06T03:47:36.270Z,6.10
2023-03-06T03:50:04.889Z,4.87
2023-03-06T03:52:31.451Z,5.73
2023-03-06T03:54:58.291Z,5.57
2023-03-06T03:57:24.872Z,6.07
2023-03-06T03:59:51.440Z,5.47
2023-03-06T04:02:18.123Z,4.80
2023-03-06T04:04:44.750Z,4.83
2023-03-06T04:07:13.296Z,5.77
2023-03-06T04:09:40.075Z,5.60
2023-03-06T04:12:07.568Z,5.63
2023-03-06T04:14:34.118Z,5.87
2023-03-06T04:17:00.654Z,5.03
2023-03-06T04:19:27.234Z,4.97
2023-03-06T04:21:53.803Z,6.13
2023-03-06T04:24:21.761Z,5.13
2023-03-06T04:26:48.338Z,5.37
2023-03-06T04:29:14.926Z,5.77
2023-03-06T04:31:41.535Z,4.63
2023-03-06T04:34:08.142Z,5.77
2023-03-06T04:36:35.216Z,4.57
2023-03-06T04:39:02.188Z,5.27
2023-03-06T04:41:30.670Z,5.10
2023-03-06T04:43:57.420Z,5.17
2023-03-06T04:46:23.979Z,5.20
2023-03-06T04:48:50.543Z,8.43
2023-03-06T04:51:17.159Z,5.53
2023-03-06T04:53:43.775Z,5.00
2023-03-06T04:56:10.472Z,5.53
2023-03-06T04:58:38.452Z,10.30
2023-03-06T05:01:05.375Z,5.80
2023-03-06T05:03:32.278Z,5.50
2023-03-06T05:05:58.869Z,5.67
2023-03-06T05:08:25.692Z,5.90
2023-03-06T05:10:57.049Z,6.10
2023-03-06T05:13:24.221Z,5.37
2023-03-06T05:15:52.356Z,5.53
2023-03-06T05:18:19.931Z,5.80
2023-03-06T05:20:46.496Z,5.60
2023-03-06T05:23:13.353Z,5.93
2023-03-06T05:25:40.450Z,5.47
2023-03-06T05:28:07.709Z,5.90
2023-03-06T05:30:35.004Z,6.40
2023-03-06T05:33:03.013Z,5.87
2023-03-06T05:35:29.692Z,5.50
2023-03-06T05:37:56.572Z,5.80
2023-03-06T05:40:23.224Z,5.60
2023-03-06T05:42:49.769Z,6.33
2023-03-06T05:45:16.479Z,6.17
2023-03-06T05:47:43.162Z,6.10
2023-03-06T05:50:13.877Z,5.93
2023-03-06T05:52:40.546Z,5.30
2023-03-06T05:55:09.906Z,5.57
2023-03-06T05:57:36.476Z,6.07
2023-03-06T06:00:03.911Z,5.60
2023-03-06T06:02:30.538Z,6.50
2023-03-06T06:04:57.437Z,5.53
2023-03-06T06:07:25.377Z,6.43
2023-03-06T06:09:53.936Z,5.40
2023-03-06T06:12:20.653Z,5.77
2023-03-06T06:14:47.248Z,5.97
2023-03-06T06:17:13.891Z,5.80
2023-03-06T06:19:40.551Z,6.67
2023-03-06T06:22:07.113Z,7.00
2023-03-06T06:24:35.060Z,5.43
2023-03-06T06:27:03.973Z,6.20
2023-03-06T06:29:31.242Z,7.28
2023-03-06T06:31:58.234Z,6.30
2023-03-06T06:34:25.648Z,6.33
2023-03-06T06:36:53.926Z,5.70
2023-03-06T06:39:22.242Z,8.80
2023-03-06T06:42:09.669Z,10.10
2023-03-06T06:44:39.385Z,9.60
2023-03-06T06:47:24.646Z,7.20
2023-03-06T06:49:52.982Z,6.30
2023-03-06T06:52:20.058Z,5.80
2023-03-06T06:54:46.816Z,6.60
2023-03-06T06:57:15.570Z,6.13
2023-03-06T06:59:42.600Z,6.55
2023-03-06T07:02:11.366Z,6.03
2023-03-06T07:04:40.960Z,6.65
2023-03-06T07:07:10.954Z,5.93
2023-03-06T07:09:39.748Z,6.33
2023-03-06T07:12:07.379Z,5.35
2023-03-06T07:14:36.225Z,6.33
2023-03-06T07:17:02.833Z,6.13
2023-03-06T07:19:29.440Z,5.53
2023-03-06T07:21:56.012Z,10.00
2023-03-06T07:24:22.588Z,6.27
2023-03-06T07:26:49.324Z,5.83
2023-03-06T07:29:16.054Z,7.03
2023-03-06T07:31:44.285Z,5.67
2023-03-06T07:34:13.083Z,6.83
2023-03-06T07:36:40.413Z,7.30
2023-03-06T07:39:07.399Z,6.27
2023-03-06T07:41:34.145Z,5.67
2023-03-06T07:44:00.985Z,6.40
2023-03-06T07:46:27.627Z,6.30
2023-03-06T07:48:55.821Z,5.80
2023-03-06T07:51:22.923Z,6.40
2023-03-06T07:53:50.197Z,6.70
2023-03-06T07:56:16.796Z,6.87
2023-03-06T07:58:45.671Z,5.47
2023-03-06T08:01:14.125Z,5.85
2023-03-06T08:03:40.830Z,5.33
2023-03-06T08:06:11.046Z,5.70
2023-03-06T08:08:42.063Z,7.50
2023-03-06T08:11:09.620Z,6.13
2023-03-06T08:13:36.438Z,10.90
2023-03-06T08:16:03.279Z,9.30
2023-03-06T08:18:30.070Z,8.10
2023-03-06T08:21:04.301Z,6.27
2023-03-06T08:23:32.401Z,11.03
2023-03-06T08:26:00.784Z,6.20
2023-03-06T08:28:28.552Z,9.90
2023-03-06T08:30:55.418Z,9.47
2023-03-06T08:33:22.551Z,10.63
2023-03-06T08:35:49.218Z,11.27
2023-03-06T08:38:15.826Z,9.00
2023-03-06T08:40:43.753Z,7.27
2023-03-06T08:43:13.077Z,6.23
2023-03-06T08:45:40.757Z,5.97
2023-03-06T08:48:07.396Z,6.03
2023-03-06T08:50:34.044Z,6.60
2023-03-06T08:53:00.780Z,6.50
2023-03-06T08:55:28.168Z,6.23
2023-03-06T08:57:56.695Z,11.97
2023-03-06T09:00:23.425Z,6.07
2023-03-06T09:02:50.162Z,6.07
2023-03-06T09:05:17.011Z,6.10
2023-03-06T09:07:43.646Z,6.20
2023-03-06T09:10:14.111Z,6.43
2023-03-06T09:12:49.834Z,6.90
2023-03-06T09:15:19.691Z,11.67
2023-03-06T09:17:47.316Z,11.30
2023-03-06T09:20:15.103Z,7.43
2023-03-06T09:22:45.625Z,7.00
2023-03-06T09:25:23.186Z,12.40
2023-03-06T09:28:01.793Z,10.27
2023-03-06T09:30:33.257Z,11.03
2023-03-06T09:32:59.826Z,10.87
2023-03-06T09:35:26.416Z,12.10
2023-03-06T09:37:53.185Z,8.07
2023-03-06T09:40:25.547Z,8.93
2023-03-06T09:42:52.508Z,9.33
2023-03-06T09:45:20.509Z,8.10
2023-03-06T09:47:59.687Z,8.27
2023-03-06T09:50:37.698Z,10.15
2023-03-06T09:53:18.653Z,8.17
2023-03-06T09:55:50.173Z,10.30
2023-03-06T09:58:21.690Z,8.90
2023-03-06T10:00:58.827Z,9.10
2023-03-06T10:03:30.999Z,8.67
2023-03-06T10:06:02.887Z,8.13
2023-03-06T10:08:42.082Z,13.50
2023-03-06T10:11:10.611Z,8.27
2023-03-06T10:13:40.966Z,8.53
2023-03-06T10:16:19.825Z,7.67
2023-03-06T10:18:47.815Z,8.30
2023-03-06T10:21:33.371Z,9.13
2023-03-06T10:24:09.403Z,8.47
2023-03-06T10:26:39.973Z,7.70
2023-03-06T10:29:27.086Z,8.83
2023-03-06T10:32:01.722Z,8.27
2023-03-06T10:34:35.242Z,8.50
2023-03-06T10:37:11.821Z,8.50
2023-03-06T10:39:39.600Z,8.00
2023-03-06T10:42:09.404Z,9.47
2023-03-06T10:44:36.028Z,8.13
2023-03-06T10:47:27.554Z,8.53
2023-03-06T10:50:01.328Z,8.03
2023-03-06T10:52:30.530Z,13.30
2023-03-06T10:55:23.732Z,7.93
2023-03-06T10:57:50.599Z,7.87
2023-03-06T11:00:27.470Z,7.87
2023-03-06T11:03:19.812Z,14.43
2023-03-06T11:06:06.131Z,7.93
2023-03-06T11:08:33.534Z,7.57
2023-03-06T11:11:02.265Z,7.50
2023-03-06T11:13:30.660Z,7.97
2023-03-06T11:16:01.712Z,7.90
2023-03-06T11:18:35.569Z,7.13
2023-03-06T11:21:07.342Z,7.40
2023-03-06T11:23:41.047Z,7.60
2023-03-06T11:26:30.194Z,9.30
2023-03-06T11:29:06.749Z,7.80
2023-03-06T11:31:37.565Z,7.17
2023-03-06T11:34:09.306Z,8.70
2023-03-06T11:36:43.921Z,7.67
2023-03-06T11:39:24.629Z,11.83
2023-03-06T11:41:59.405Z,8.30
2023-03-06T11:44:34.773Z,8.10
2023-03-06T11:47:09.658Z,7.63
2023-03-06T11:49:41.694Z,16.30
2023-03-06T11:52:19.703Z,11.07
2023-03-06T11:54:54.187Z,7.83
2023-03-06T11:57:24.630Z,16.67
2023-03-06T12:00:10.328Z,14.27
2023-03-06T12:02:48.505Z,15.67
2023-03-06T12:05:38.998Z,8.20
2023-03-06T12:08:26.898Z,16.83
2023-03-06T12:11:01.227Z,16.77
2023-03-06T12:16:35.900Z,11.83
2023-03-06T12:19:12.858Z,13.73
2023-03-06T12:21:48.875Z,10.83
2023-03-06T12:24:36.185Z,17.93
2023-03-06T12:27:17.329Z,8.63
2023-03-06T12:30:02.028Z,15.07
2023-03-06T12:32:40.702Z,16.70
2023-03-06T12:35:22.328Z,9.25
2023-03-06T12:38:01.412Z,12.53
2023-03-06T12:40:54.289Z,10.50
2023-03-06T12:43:44.611Z,8.53
2023-03-06T12:46:15.268Z,9.43
2023-03-06T12:48:45.772Z,12.43
2023-03-06T12:51:16.865Z,13.27
2023-03-06T12:53:45.285Z,11.60
2023-03-06T12:56:15.506Z,11.37
2023-03-06T12:58:53.096Z,8.70
2023-03-06T13:01:50.871Z,8.40
2023-03-06T13:04:45.575Z,8.00
2023-03-06T13:07:41.342Z,8.93
2023-03-06T13:10:20.033Z,10.80
2023-03-06T13:12:55.967Z,11.90
2023-03-06T13:15:35.518Z,8.97
2023-03-06T13:18:22.864Z,8.88
2023-03-06T13:20:50.666Z,7.73
2023-03-06T13:23:52.104Z,9.83
2023-03-06T13:26:56.951Z,8.80
2023-03-06T13:29:51.726Z,7.87
2023-03-06T13:32:28.268Z,8.07
2023-03-06T13:34:55.013Z,7.43
2023-03-06T13:37:52.522Z,9.73
2023-03-06T13:40:26.777Z,8.70
2023-03-06T13:43:18.816Z,9.53
2023-03-06T13:45:48.470Z,9.87
2023-03-06T13:51:21.130Z,6.83
2023-03-06T13:54:19.581Z,7.40
2023-03-06T13:57:16.390Z,10.23
2023-03-06T14:00:15.795Z,7.40
2023-03-06T14:03:19.790Z,9.15
2023-03-06T14:05:48.643Z,7.90
2023-03-06T14:08:18.664Z,8.25
2023-03-06T14:13:19.734Z,8.10
2023-03-06T14:15:48.888Z,8.30
2023-03-06T14:18:23.963Z,8.07
2023-03-06T14:20:56.273Z,9.00
2023-03-06T14:23:29.268Z,8.27
2023-03-06T14:26:03.180Z,8.03
2023-03-06T14:28:31.716Z,9.13
2023-03-06T14:31:00.738Z,8.87
2023-03-06T14:33:37.052Z,8.07
2023-03-06T14:36:09.500Z,7.50
2023-03-06T14:38:42.246Z,7.53
2023-03-06T14:41:11.392Z,10.50
2023-03-06T14:43:39.593Z,8.47
2023-03-06T14:46:07.024Z,7.03
2023-03-06T14:48:41.785Z,9.43
2023-03-06T14:51:15.799Z,8.03
2023-03-06T14:53:44.998Z,7.13
2023-03-06T14:56:17.232Z,7.35
2023-03-06T14:58:51.578Z,6.70
2023-03-06T15:01:26.226Z,8.87
2023-03-06T15:03:58.380Z,7.80
2023-03-06T15:06:29.985Z,7.67
2023-03-06T15:09:00.855Z,6.40
2023-03-06T15:11:47.469Z,4.10
2023-03-06T15:14:19.006Z,9.43
2023-03-06T15:16:45.827Z,7.07
2023-03-06T15:19:18.914Z,7.83
2023-03-06T15:21:48.387Z,8.73
2023-03-06T15:24:33.090Z,6.15
2023-03-06T15:27:02.274Z,8.13
2023-03-06T15:29:29.140Z,9.45
2023-03-06T15:32:14.124Z,6.50
2023-03-06T15:34:43.345Z,6.83
2023-03-06T15:37:25.726Z,9.40
2023-03-06T15:40:03.930Z,10.27
2023-03-06T15:42:34.333Z,6.57
2023-03-06T15:45:13.035Z,8.80
2023-03-06T15:47:39.681Z,6.87
2023-03-06T15:50:14.453Z,4.20
2023-03-06T15:52:41.168Z,9.67
2023-03-06T15:55:08.858Z,8.27
2023-03-06T15:57:35.602Z,7.37
2023-03-06T16:00:02.587Z,9.47
2023-03-06T16:02:29.286Z,6.83
2023-03-06T16:04:56.132Z,7.20
2023-03-06T16:07:24.128Z,7.00
2023-03-06T16:09:50.812Z,8.93
2023-03-06T16:12:19.506Z,9.77
2023-03-06T16:14:50.251Z,7.63
2023-03-06T16:17:19.317Z,7.57
2023-03-06T16:19:45.986Z,7.17
2023-03-06T16:22:12.828Z,8.17
2023-03-06T16:24:41.996Z,5.83
2023-03-06T16:27:16.535Z,7.72
2023-03-06T16:29:43.202Z,7.17
2023-03-06T16:32:10.551Z,6.20
2023-03-06T16:34:37.251Z,7.93
2023-03-06T16:37:04.193Z,7.17
2023-03-06T16:39:30.878Z,8.10
2023-03-06T16:41:58.830Z,6.57
2023-03-06T16:44:25.485Z,7.03
2023-03-06T16:46:52.106Z,6.90
2023-03-06T16:49:21.126Z,8.23
2023-03-06T16:51:48.203Z,7.15
2023-03-06T16:54:15.647Z,6.10
2023-03-06T16:56:43.124Z,6.37
2023-03-06T16:59:11.476Z,8.23
2023-03-06T17:01:42.634Z,7.68
2023-03-06T17:04:09.815Z,7.20
2023-03-06T17:06:36.529Z,5.57
2023-03-06T17:09:04.017Z,8.17
2023-03-06T17:11:30.662Z,6.40
2023-03-06T17:13:57.289Z,7.83
2023-03-06T17:16:25.395Z,6.73
2023-03-06T17:18:52.430Z,8.27
2023-03-06T17:21:19.337Z,8.70
2023-03-06T17:23:46.357Z,6.43
2023-03-06T17:26:15.438Z,5.77
2023-03-06T17:28:42.325Z,5.53
2023-03-06T17:31:14.195Z,6.73
2023-03-06T17:33:42.778Z,5.90
2023-03-06T17:36:10.983Z,5.73
2023-03-06T17:38:37.721Z,5.80
2023-03-06T17:41:05.942Z,6.87
2023-03-06T17:43:33.316Z,7.80
2023-03-06T17:46:03.151Z,6.83
2023-03-06T17:48:30.153Z,6.27
2023-03-06T17:50:58.684Z,6.30
2023-03-06T17:53:25.610Z,6.07
2023-03-06T17:55:52.382Z,6.07
2023-03-06T17:58:19.140Z,5.57
2023-03-06T18:00:46.619Z,5.30
2023-03-06T18:03:13.520Z,6.73
2023-03-06T18:05:40.668Z,5.87
2023-03-06T18:08:10.251Z,6.03
2023-03-06T18:10:40.084Z,5.78
2023-03-06T18:15:34.454Z,5.40
2023-03-06T18:18:01.169Z,5.63
2023-03-06T18:20:27.910Z,7.03
2023-03-06T18:22:55.009Z,9.17
2023-03-06T18:25:25.603Z,5.77
2023-03-06T18:27:52.258Z,6.00
2023-03-06T18:30:18.888Z,8.13
2023-03-06T18:32:45.741Z,7.37
2023-03-06T18:35:12.342Z,9.00
2023-03-06T18:37:38.921Z,7.40
2023-03-06T18:40:06.690Z,8.37
2023-03-06T18:42:34.645Z,8.07
2023-03-06T18:45:01.297Z,7.57
2023-03-06T18:47:27.977Z,8.43
2023-03-06T18:49:54.725Z,6.90
2023-03-06T18:52:21.340Z,7.57
2023-03-06T18:54:49.869Z,7.97
2023-03-06T18:57:16.599Z,8.07
2023-03-06T18:59:45.111Z,7.40
2023-03-06T19:02:12.599Z,7.60
2023-03-06T19:04:39.304Z,6.87
2023-03-06T19:07:06.392Z,7.53
2023-03-06T19:09:33.033Z,7.87
2023-03-06T19:12:00.611Z,7.27
2023-03-06T19:14:27.885Z,12.60
2023-03-06T19:16:55.912Z,6.87
2023-03-06T19:19:26.223Z,7.40
2023-03-06T19:21:53.415Z,7.73
2023-03-06T19:24:21.092Z,7.63
2023-03-06T19:26:47.694Z,6.63
2023-03-06T19:29:14.331Z,6.53
2023-03-06T19:31:41.639Z,6.90
2023-03-06T19:34:09.675Z,6.37
2023-03-06T19:36:38.720Z,9.87
2023-03-06T19:39:07.763Z,6.60
2023-03-06T19:41:34.689Z,6.97
2023-03-06T19:44:03.229Z,6.30
2023-03-06T19:46:29.990Z,7.00
2023-03-06T19:48:58.570Z,6.57
2023-03-06T19:51:27.186Z,6.43
2023-03-06T19:53:54.273Z,6.07
2023-03-06T19:56:22.851Z,6.70
2023-03-06T19:58:49.544Z,7.03
2023-03-06T20:01:18.494Z,6.40
2023-03-06T20:03:45.623Z,7.13
2023-03-06T20:06:13.738Z,5.97
2023-03-06T20:08:42.068Z,6.03
2023-03-06T20:11:16.183Z,6.83
2023-03-06T20:13:47.439Z,7.60
2023-03-06T20:16:14.521Z,5.60
2023-03-06T20:18:41.244Z,5.87
2023-03-06T20:21:07.991Z,6.00
2023-03-06T20:23:34.863Z,5.50
2023-03-06T20:26:04.217Z,6.70
2023-03-06T20:28:30.880Z,5.75
2023-03-06T20:30:58.259Z,7.27
2023-03-06T20:33:26.503Z,6.43
2023-03-06T20:35:54.011Z,5.57
2023-03-06T20:38:20.775Z,5.63
2023-03-06T20:40:47.459Z,5.33
2023-03-06T20:43:15.935Z,5.67
2023-03-06T20:45:42.512Z,6.03
2023-03-06T20:48:09.090Z,5.43
2023-03-06T20:50:35.625Z,5.90
2023-03-06T20:53:02.183Z,6.07
2023-03-06T20:55:28.746Z,5.53
2023-03-06T20:57:55.396Z,5.83
2023-03-06T21:00:23.353Z,6.40
2023-03-06T21:02:49.966Z,9.83
2023-03-06T21:05:16.750Z,5.73
2023-03-06T21:07:43.317Z,5.60
2023-03-06T21:10:10.771Z,5.60
2023-03-06T21:12:37.340Z,5.43
2023-03-06T21:15:04.694Z,6.00
2023-03-06T21:17:32.585Z,5.73
2023-03-06T21:19:59.190Z,6.27
2023-03-06T21:22:25.886Z,5.10
2023-03-06T21:24:52.707Z,6.10
2023-03-06T21:27:19.461Z,4.87
2023-03-06T21:29:46.436Z,5.10
2023-03-06T21:32:13.153Z,5.43
2023-03-06T21:34:41.124Z,5.20
2023-03-06T21:37:07.740Z,5.60
2023-03-06T21:39:34.803Z,5.67
2023-03-06T21:42:02.210Z,7.60
2023-03-06T21:44:28.805Z,4.87
2023-03-06T21:46:55.432Z,5.33
2023-03-06T21:49:25.971Z,5.43
2023-03-06T21:51:54.874Z,5.20
2023-03-06T21:54:21.807Z,4.80
2023-03-06T21:56:48.482Z,5.73
2023-03-06T21:59:15.188Z,5.10
2023-03-06T22:01:42.644Z,5.23
2023-03-06T22:04:09.349Z,5.43
2023-03-06T22:06:39.143Z,5.33
2023-03-06T22:11:37.163Z,5.70
2023-03-06T22:14:04.254Z,4.80
2023-03-06T22:16:30.955Z,4.77
2023-03-06T22:18:57.733Z,5.03
2023-03-06T22:21:24.406Z,4.80
2023-03-06T22:23:51.468Z,5.90
2023-03-06T22:26:19.947Z,5.20
2023-03-06T22:28:46.636Z,5.20
2023-03-06T22:31:15.758Z,4.97
2023-03-06T22:33:42.363Z,4.10
2023-03-06T22:36:11.373Z,4.80
2023-03-06T22:38:39.826Z,5.55
2023-03-06T22:41:07.781Z,4.80
2023-03-06T22:43:36.663Z,5.20
2023-03-06T22:46:04.259Z,5.30
2023-03-06T22:48:31.150Z,5.53
2023-03-06T22:51:02.371Z,5.33
2023-03-06T22:53:28.948Z,4.97
2023-03-06T22:55:57.757Z,5.70
2023-03-06T22:58:24.349Z,5.00
2023-03-06T23:00:52.695Z,5.23
2023-03-06T23:03:19.506Z,4.80
2023-03-06T23:05:46.219Z,4.73
2023-03-06T23:08:12.804Z,4.70
2023-03-06T23:10:39.629Z,5.40
2023-03-06T23:13:06.665Z,5.40
2023-03-06T23:15:35.599Z,4.77
2023-03-06T23:18:04.008Z,5.18
2023-03-06T23:20:31.043Z,5.37
2023-03-06T23:22:57.620Z,6.10
2023-03-06T23:25:24.277Z,4.40
2023-03-06T23:27:51.337Z,5.23
2023-03-06T23:30:18.259Z,4.97
2023-03-06T23:32:45.991Z,4.50
2023-03-06T23:35:14.407Z,5.07
2023-03-06T23:37:41.006Z,5.07
2023-03-06T23:40:09.309Z,4.73
2023-03-06T23:42:35.872Z,4.47
2023-03-06T23:45:02.612Z,5.93
2023-03-06T23:47:31.859Z,5.27
2023-03-06T23:49:58.431Z,5.15
2023-03-06T23:52:26.694Z,5.03
2023-03-06T23:54:53.268Z,4.63
2023-03-06T23:57:20.045Z,4.00
2023-03-06T23:59:46.646Z,5.53
